createdAt,value
2023-04-20T00:02:03.277Z,101594.53
2023-04-20T00:06:05.533Z,101595.75
2023-04-20T00:10:08.783Z,101593.97
2023-04-20T00:14:10.234Z,101597.41
2023-04-20T00:18:11.782Z,101595.50
2023-04-20T00:22:19.983Z,101592.84
2023-04-20T00:26:21.469Z,101587.31
2023-04-20T00:30:23.215Z,101584.38
2023-04-20T00:34:24.655Z,101582.88
2023-04-20T00:38:26.164Z,101588.22
2023-04-20T00:42:27.647Z,101574.56
2023-04-20T00:46:29.223Z,101578.63
2023-04-20T00:50:30.944Z,101568.09
2023-04-20T00:54:32.858Z,101570.97
2023-04-20T00:58:34.390Z,101580.44
2023-04-20T01:02:36.035Z,101568.81
2023-04-20T01:06:38.327Z,101567.28
2023-04-20T01:10:39.753Z,101574.25
2023-04-20T01:14:41.169Z,101573.41
2023-04-20T01:18:48.679Z,101572.50
2023-04-20T01:22:51.796Z,101573.94
2023-04-20T01:26:53.313Z,101576.56
2023-04-20T01:30:54.771Z,101561.16
2023-04-20T01:34:56.226Z,101570.41
2023-04-20T01:38:58.376Z,101569.47
2023-04-20T01:42:59.850Z,101567.31
2023-04-20T01:47:01.551Z,101565.84
2023-04-20T01:51:03.183Z,101560.06
2023-04-20T01:55:05.215Z,101566.81
2023-04-20T01:59:06.622Z,101572.50
2023-04-20T02:03:08.154Z,101564.16
2023-04-20T02:07:09.748Z,101567.78
2023-04-20T02:11:11.176Z,101575.31
2023-04-20T02:15:12.638Z,101571.81
2023-04-20T02:19:14.129Z,101565.84
2023-04-20T02:23:15.831Z,101568.44
2023-04-20T02:27:17.255Z,101566.28
2023-04-20T02:31:19.047Z,101570.97
2023-04-20T02:35:20.796Z,101564.44
2023-04-20T02:39:24.983Z,101567.28
2023-04-20T02:43:26.403Z,101563.41
2023-04-20T02:47:27.859Z,101562.53
2023-04-20T02:51:29.616Z,101564.78
2023-04-20T02:55:31.209Z,101564.91
2023-04-20T02:59:32.669Z,101567.84
2023-04-20T03:03:34.269Z,101574.44
2023-04-20T03:07:36.034Z,101576.44
2023-04-20T03:11:37.475Z,101569.03
2023-04-20T03:15:39.177Z,101564.47
2023-04-20T03:19:41.651Z,101567.72
2023-04-20T03:23:43.071Z,101562.47
2023-04-20T03:27:46.598Z,101572.31
2023-04-20T03:31:48.189Z,101579.25
2023-04-20T03:35:49.615Z,101582.88
2023-04-20T03:39:51.053Z,101588.09
2023-04-20T03:43:52.495Z,101586.69
2023-04-20T03:47:54.084Z,101591.22
2023-04-20T03:51:55.498Z,101593.44
2023-04-20T03:55:57.068Z,101586.91
2023-04-20T03:59:58.489Z,101583.44
2023-04-20T04:04:00.202Z,101585.28
2023-04-20T04:08:02.104Z,101600.13
2023-04-20T04:12:05.248Z,101594.97
2023-04-20T04:16:06.871Z,101596.59
2023-04-20T04:20:09.134Z,101605.97
2023-04-20T04:24:10.583Z,101604.34
2023-04-20T04:28:12.513Z,101607.94
2023-04-20T04:32:14.001Z,101597.75
2023-04-20T04:36:15.777Z,101599.34
2023-04-20T04:40:18.182Z,101598.84
2023-04-20T04:44:19.805Z,101616.88
2023-04-20T04:48:21.259Z,101619.75
2023-04-20T04:52:22.877Z,101607.94
2023-04-20T04:56:24.684Z,101617.00
2023-04-20T05:00:26.112Z,101616.72
2023-04-20T05:04:27.608Z,101613.03
2023-04-20T05:08:29.124Z,101615.78
2023-04-20T05:12:30.524Z,101628.28
2023-04-20T05:16:32.019Z,101620.50
2023-04-20T05:20:33.540Z,101631.91
2023-04-20T05:24:35.122Z,101640.88
2023-04-20T05:28:37.069Z,101628.91
2023-04-20T05:32:38.475Z,101628.66
2023-04-20T05:36:41.232Z,101636.88
2023-04-20T05:40:42.709Z,101641.50
2023-04-20T05:44:44.244Z,101635.50
2023-04-20T05:48:46.000Z,101634.03
2023-04-20T05:52:47.432Z,101634.97
2023-04-20T05:56:51.232Z,101634.94
2023-04-20T06:00:52.902Z,101644.31
2023-04-20T06:04:54.458Z,101647.13
2023-04-20T06:08:58.085Z,101654.16
2023-04-20T06:12:59.547Z,101650.28
2023-04-20T06:17:00.939Z,101655.03
2023-04-20T06:21:03.221Z,101655.34
2023-04-20T06:25:04.929Z,101649.72
2023-04-20T06:29:06.378Z,101642.50
2023-04-20T06:33:09.165Z,101648.00
2023-04-20T06:37:11.676Z,101659.97
2023-04-20T06:41:13.138Z,101663.63
2023-04-20T06:45:14.644Z,101661.50
2023-04-20T06:49:16.293Z,101659.78
2023-04-20T06:53:18.112Z,101670.81
2023-04-20T06:57:19.744Z,101665.16
2023-04-20T07:01:21.720Z,101662.91
2023-04-20T07:05:23.657Z,101663.63
2023-04-20T07:09:25.123Z,101661.53
2023-04-20T07:13:26.550Z,101653.47
2023-04-20T07:17:28.187Z,101669.25
2023-04-20T07:21:31.615Z,101660.50
2023-04-20T07:25:33.049Z,101669.59
2023-04-20T07:29:34.524Z,101673.28
2023-04-20T07:33:36.201Z,101677.09
2023-04-20T07:37:37.622Z,101666.50
2023-04-20T07:41:39.033Z,101677.72
2023-04-20T07:45:41.771Z,101674.28
2023-04-20T07:49:43.931Z,101683.94
2023-04-20T07:53:45.365Z,101674.84
2023-04-20T07:57:46.992Z,101688.53
2023-04-20T08:01:48.505Z,101681.19
2023-04-20T08:05:50.000Z,101680.38
2023-04-20T08:09:51.696Z,101675.03
2023-04-20T08:13:53.118Z,101682.69
2023-04-20T08:17:54.633Z,101680.88
2023-04-20T08:21:56.348Z,101678.75
2023-04-20T08:25:58.026Z,101680.94
2023-04-20T08:29:59.482Z,101687.41
2023-04-20T08:34:01.371Z,101692.66
2023-04-20T08:38:02.841Z,101694.34
2023-04-20T08:42:04.330Z,101703.97
2023-04-20T08:46:06.007Z,101697.91
2023-04-20T08:50:09.046Z,101687.53
2023-04-20T08:54:11.419Z,101700.69
2023-04-20T08:58:13.056Z,101694.56
2023-04-20T09:02:14.860Z,101694.75
2023-04-20T09:06:18.380Z,101699.25
2023-04-20T09:10:19.911Z,101696.34
2023-04-20T09:14:21.372Z,101705.94
2023-04-20T09:18:24.662Z,101698.00
2023-04-20T09:22:33.536Z,101698.47
2023-04-20T09:26:36.097Z,101698.63
2023-04-20T09:30:49.157Z,101699.47
2023-04-20T09:34:50.885Z,101688.88
2023-04-20T09:39:03.727Z,101685.28
2023-04-20T09:43:18.099Z,101677.34
2023-04-20T09:47:20.012Z,101682.22
2023-04-20T09:51:24.318Z,101674.69
2023-04-20T09:55:26.611Z,101671.81
2023-04-20T09:59:28.845Z,101673.41
2023-04-20T10:03:30.604Z,101671.56
2023-04-20T10:07:33.107Z,101676.88
2023-04-20T10:11:49.026Z,101677.13
2023-04-20T10:15:54.427Z,101673.28
2023-04-20T10:19:55.928Z,101678.88
2023-04-20T10:23:58.973Z,101677.09
2023-04-20T10:28:04.698Z,101676.66
2023-04-20T10:32:06.227Z,101682.47
2023-04-20T10:36:07.695Z,101678.50
2023-04-20T10:40:10.580Z,101669.94
2023-04-20T10:44:12.017Z,101666.16
2023-04-20T10:48:15.997Z,101657.56
2023-04-20T10:52:31.678Z,101646.56
2023-04-20T10:56:40.668Z,101642.50
2023-04-20T11:00:42.112Z,101643.72
2023-04-20T11:04:43.661Z,101630.28
2023-04-20T11:08:45.185Z,101633.13
2023-04-20T11:12:46.948Z,101641.19
2023-04-20T11:16:53.231Z,101651.38
2023-04-20T11:20:56.266Z,101645.16
2023-04-20T11:25:09.224Z,101653.50
2023-04-20T11:29:10.700Z,101651.09
2023-04-20T11:33:13.988Z,101646.78
2023-04-20T11:37:15.710Z,101644.59
2023-04-20T11:41:18.071Z,101638.34
2023-04-20T11:45:21.808Z,101624.69
2023-04-20T11:49:25.143Z,101621.81
2023-04-20T11:53:26.784Z,101623.19
2023-04-20T11:57:28.284Z,101614.19
2023-04-20T12:01:30.045Z,101608.97
2023-04-20T12:05:31.536Z,101609.25
2023-04-20T12:09:38.336Z,101605.34
2023-04-20T12:13:39.863Z,101611.91
2023-04-20T12:17:41.343Z,101607.28
2023-04-20T12:21:43.311Z,101600.81
2023-04-20T12:25:44.939Z,101594.25
2023-04-20T12:29:46.449Z,101595.44
2023-04-20T12:33:47.877Z,101591.75
2023-04-20T12:37:49.292Z,101591.78
2023-04-20T12:41:50.810Z,101580.91
2023-04-20T12:45:52.305Z,101569.56
2023-04-20T12:49:55.222Z,101559.03
2023-04-20T12:53:56.674Z,101562.38
2023-04-20T12:57:58.155Z,101556.13
2023-04-20T13:01:59.658Z,101557.59
2023-04-20T13:06:01.658Z,101550.41
2023-04-20T13:10:03.941Z,101549.56
2023-04-20T13:14:05.724Z,101544.09
2023-04-20T13:18:07.479Z,101549.63
2023-04-20T13:22:08.947Z,101543.63
2023-04-20T13:26:10.491Z,101543.72
2023-04-20T13:30:12.693Z,101540.56
2023-04-20T13:34:14.463Z,101528.94
2023-04-20T13:38:16.068Z,101530.03
2023-04-20T13:42:17.515Z,101519.25
2023-04-20T13:46:20.152Z,101525.72
2023-04-20T13:50:21.813Z,101520.47
2023-04-20T13:54:23.240Z,101518.44
2023-04-20T13:58:24.711Z,101523.28
2023-04-20T14:02:27.388Z,101513.19
2023-04-20T14:06:29.107Z,101506.03
2023-04-20T14:10:30.636Z,101508.00
2023-04-20T14:14:32.151Z,101504.81
2023-04-20T14:18:33.657Z,101503.56
2023-04-20T14:22:36.635Z,101491.50
2023-04-20T14:26:38.123Z,101489.03
2023-04-20T14:30:39.617Z,101487.44
2023-04-20T14:34:41.184Z,101484.22
2023-04-20T14:38:42.687Z,101479.41
2023-04-20T14:42:45.031Z,101476.75
2023-04-20T14:46:46.589Z,101472.78
2023-04-20T14:50:48.210Z,101463.72
2023-04-20T14:54:49.673Z,101462.84
2023-04-20T14:58:51.249Z,101458.47
2023-04-20T15:02:53.589Z,101451.78
2023-04-20T15:06:55.205Z,101450.53
2023-04-20T15:10:56.733Z,101450.16
2023-04-20T15:14:58.173Z,101450.81
2023-04-20T15:18:59.618Z,101454.22
2023-04-20T15:23:01.032Z,101455.44
2023-04-20T15:27:03.959Z,101454.25
2023-04-20T15:31:07.951Z,101444.38
2023-04-20T15:35:09.624Z,101443.09
2023-04-20T15:39:11.446Z,101441.69
2023-04-20T15:43:12.921Z,101441.59
2023-04-20T15:47:15.328Z,101440.13
2023-04-20T15:51:17.604Z,101438.50
2023-04-20T15:55:19.058Z,101429.72
2023-04-20T15:59:20.733Z,101442.44
2023-04-20T16:03:22.337Z,101428.13
2023-04-20T16:07:23.823Z,101433.59
2023-04-20T16:11:25.258Z,101431.72
2023-04-20T16:15:26.831Z,101436.34
2023-04-20T16:19:28.668Z,101430.94
2023-04-20T16:23:31.292Z,101434.09
2023-04-20T16:27:33.192Z,101433.34
2023-04-20T16:31:36.658Z,101435.56
2023-04-20T16:35:38.201Z,101435.38
2023-04-20T16:39:40.474Z,101438.53
2023-04-20T16:43:41.939Z,101445.41
2023-04-20T16:47:43.530Z,101445.34
2023-04-20T16:51:45.029Z,101441.75
2023-04-20T16:55:46.541Z,101443.50
2023-04-20T16:59:48.025Z,101447.06
2023-04-20T17:03:49.547Z,101427.81
2023-04-20T17:07:51.068Z,101431.03
2023-04-20T17:11:52.735Z,101429.81
2023-04-20T17:15:54.197Z,101435.38
2023-04-20T17:19:55.931Z,101439.94
2023-04-20T17:23:57.482Z,101439.56
2023-04-20T17:27:58.952Z,101447.03
2023-04-20T17:32:00.660Z,101441.72
2023-04-20T17:36:02.142Z,101447.59
2023-04-20T17:40:05.044Z,101443.25
2023-04-20T17:44:06.524Z,101447.66
2023-04-20T17:48:08.993Z,101447.78
2023-04-20T17:52:14.811Z,101452.19
2023-04-20T17:56:16.331Z,101459.34
2023-04-20T18:00:18.639Z,101470.19
2023-04-20T18:04:21.124Z,101464.41
2023-04-20T18:08:23.563Z,101465.31
2023-04-20T18:12:25.093Z,101468.69
2023-04-20T18:16:26.804Z,101469.81
2023-04-20T18:20:29.943Z,101470.41
2023-04-20T18:24:33.864Z,101480.34
2023-04-20T18:28:35.638Z,101483.00
2023-04-20T18:32:38.357Z,101483.88
2023-04-20T18:36:40.548Z,101480.06
2023-04-20T18:40:42.032Z,101487.25
2023-04-20T18:44:43.605Z,101486.47
2023-04-20T18:48:45.057Z,101481.34
2023-04-20T18:52:46.617Z,101483.84
2023-04-20T18:56:50.639Z,101485.47
2023-04-20T19:00:52.166Z,101487.56
2023-04-20T19:04:53.731Z,101485.84
2023-04-20T19:08:55.882Z,101487.81
2023-04-20T19:12:57.491Z,101493.56
2023-04-20T19:16:59.163Z,101488.44
2023-04-20T19:21:00.771Z,101482.50
2023-04-20T19:25:02.360Z,101472.88
2023-04-20T19:29:04.137Z,101482.47
2023-04-20T19:33:06.029Z,101473.97
2023-04-20T19:37:07.600Z,101478.16
2023-04-20T19:41:09.890Z,101481.84
2023-04-20T19:45:11.800Z,101478.81
2023-04-20T19:49:13.367Z,101487.38
2023-04-20T19:53:15.709Z,101482.63
2023-04-20T19:57:17.149Z,101484.16
2023-04-20T20:01:19.308Z,101483.22
2023-04-20T20:05:20.818Z,101484.50
2023-04-20T20:09:24.199Z,101482.72
2023-04-20T20:13:26.401Z,101480.47
2023-04-20T20:17:27.965Z,101490.59
2023-04-20T20:21:29.749Z,101481.28
2023-04-20T20:25:35.071Z,101486.91
2023-04-20T20:29:36.888Z,101490.09
2023-04-20T20:33:38.359Z,101492.97
2023-04-20T20:37:41.113Z,101494.94
2023-04-20T20:41:46.533Z,101499.03
2023-04-20T20:45:48.000Z,101498.56
2023-04-20T20:49:49.542Z,101494.53
2023-04-20T20:53:50.993Z,101489.13
2023-04-20T20:57:52.628Z,101493.03
2023-04-20T21:01:54.332Z,101487.97
2023-04-20T21:05:55.807Z,101484.16
2023-04-20T21:09:57.245Z,101488.22
2023-04-20T21:14:01.801Z,101491.78
2023-04-20T21:18:03.840Z,101488.75
2023-04-20T21:22:05.491Z,101486.38
2023-04-20T21:26:06.918Z,101484.34
2023-04-20T21:30:11.431Z,101494.22
2023-04-20T21:34:13.282Z,101486.38
2023-04-20T21:38:14.757Z,101483.34
2023-04-20T21:42:16.438Z,101485.94
2023-04-20T21:46:18.057Z,101484.09
2023-04-20T21:50:19.688Z,101492.41
2023-04-20T21:54:21.188Z,101497.03
2023-04-20T21:58:22.663Z,101494.69
2023-04-20T22:02:24.234Z,101500.34
2023-04-20T22:06:25.758Z,101495.84
2023-04-20T22:10:28.014Z,101505.09
2023-04-20T22:14:29.594Z,101503.00
2023-04-20T22:18:31.046Z,101495.84
2023-04-20T22:22:32.936Z,101506.00
2023-04-20T22:26:34.518Z,101501.41
2023-04-20T22:30:36.266Z,101504.97
2023-04-20T22:34:37.807Z,101497.22
2023-04-20T22:38:39.358Z,101495.66
2023-04-20T22:42:40.922Z,101497.72
2023-04-20T22:46:42.482Z,101502.75
2023-04-20T22:50:43.942Z,101500.97
2023-04-20T22:54:48.176Z,101503.63
2023-04-20T22:58:49.863Z,101503.03
2023-04-20T23:02:51.578Z,101504.47
2023-04-20T23:06:55.972Z,101516.34
2023-04-20T23:10:57.442Z,101507.22
2023-04-20T23:15:02.090Z,101511.69
2023-04-20T23:19:03.550Z,101515.97
2023-04-20T23:23:07.402Z,101508.53
2023-04-20T23:27:08.846Z,101500.13
2023-04-20T23:31:10.323Z,101505.00
2023-04-20T23:35:12.204Z,101491.94
2023-04-20T23:39:13.647Z,101501.41
2023-04-20T23:43:15.309Z,101500.09
2023-04-20T23:47:18.135Z,101504.53
2023-04-20T23:51:19.558Z,101503.59
2023-04-20T23:55:21.060Z,101492.03
2023-04-20T23:59:22.523Z,101489.41
